sensor_id;sensor_type;location;lat;lon;timestamp;pressure;altitude;pressure_sealevel;temperature;humidity
74627;BME280;63132;52.268;5.192;2024-02-23T00:00:07;98397.38;;;10.26;61.68
74627;BME280;63132;52.268;5.192;2024-02-23T00:02:32;98410.88;;;10.15;61.67
74627;BME280;63132;52.268;5.192;2024-02-23T00:04:58;98418.91;;;10.31;61.73
74627;BME280;63132;52.268;5.192;2024-02-23T00:07:23;98427.81;;;10.44;61.07
74627;BME280;63132;52.268;5.192;2024-02-23T00:09:48;98431.09;;;9.84;62.13
74627;BME280;63132;52.268;5.192;2024-02-23T00:12:14;98439.19;;;10.56;60.81
74627;BME280;63132;52.268;5.192;2024-02-23T00:14:39;98429.81;;;10.44;60.59
74627;BME280;63132;52.268;5.192;2024-02-23T00:17:05;98444.06;;;10.15;61.20
74627;BME280;63132;52.268;5.192;2024-02-23T00:19:31;98455.94;;;10.61;61.04
74627;BME280;63132;52.268;5.192;2024-02-23T00:21:56;98448.25;;;10.38;61.13
74627;BME280;63132;52.268;5.192;2024-02-23T00:24:24;98456.66;;;10.07;61.35
74627;BME280;63132;52.268;5.192;2024-02-23T00:26:49;98451.19;;;10.52;60.70
74627;BME280;63132;52.268;5.192;2024-02-23T00:29:16;98461.00;;;10.26;60.68
74627;BME280;63132;52.268;5.192;2024-02-23T00:31:42;98463.47;;;10.24;60.33
74627;BME280;63132;52.268;5.192;2024-02-23T00:34:10;98455.47;;;10.63;59.58
74627;BME280;63132;52.268;5.192;2024-02-23T00:36:41;98467.47;;;10.32;59.71
74627;BME280;63132;52.268;5.192;2024-02-23T00:39:07;98462.84;;;10.47;59.23
74627;BME280;63132;52.268;5.192;2024-02-23T00:41:33;98468.69;;;10.31;60.44
74627;BME280;63132;52.268;5.192;2024-02-23T00:43:58;98459.03;;;10.54;60.08
74627;BME280;63132;52.268;5.192;2024-02-23T00:46:24;98466.72;;;10.68;59.14
74627;BME280;63132;52.268;5.192;2024-02-23T00:48:49;98469.63;;;10.74;59.11
74627;BME280;63132;52.268;5.192;2024-02-23T00:51:15;98467.78;;;10.52;59.62
74627;BME280;63132;52.268;5.192;2024-02-23T00:53:40;98472.72;;;10.67;59.69
74627;BME280;63132;52.268;5.192;2024-02-23T00:56:06;98480.84;;;10.61;59.19
74627;BME280;63132;52.268;5.192;2024-02-23T00:58:31;98481.63;;;10.62;58.90
74627;BME280;63132;52.268;5.192;2024-02-23T01:00:56;98498.69;;;10.51;59.81
74627;BME280;63132;52.268;5.192;2024-02-23T01:03:22;98498.22;;;10.71;59.41
74627;BME280;63132;52.268;5.192;2024-02-23T01:05:47;98490.69;;;10.80;58.96
74627;BME280;63132;52.268;5.192;2024-02-23T01:08:13;98500.22;;;10.70;58.92
74627;BME280;63132;52.268;5.192;2024-02-23T01:10:38;98498.53;;;10.73;59.59
74627;BME280;63132;52.268;5.192;2024-02-23T01:13:03;98502.94;;;10.34;59.77
74627;BME280;63132;52.268;5.192;2024-02-23T01:15:30;98508.66;;;10.48;59.25
74627;BME280;63132;52.268;5.192;2024-02-23T01:17:55;98517.59;;;11.07;57.70
74627;BME280;63132;52.268;5.192;2024-02-23T01:20:21;98516.84;;;10.89;58.15
74627;BME280;63132;52.268;5.192;2024-02-23T01:22:46;98523.75;;;10.93;58.40
74627;BME280;63132;52.268;5.192;2024-02-23T01:25:12;98528.19;;;10.36;58.73
74627;BME280;63132;52.268;5.192;2024-02-23T01:27:37;98532.53;;;10.92;59.16
74627;BME280;63132;52.268;5.192;2024-02-23T01:30:03;98539.94;;;10.18;60.13
74627;BME280;63132;52.268;5.192;2024-02-23T01:32:28;98541.09;;;10.57;59.59
74627;BME280;63132;52.268;5.192;2024-02-23T01:34:54;98537.28;;;10.54;58.71
74627;BME280;63132;52.268;5.192;2024-02-23T01:37:19;98558.19;;;10.65;58.15
74627;BME280;63132;52.268;5.192;2024-02-23T01:39:44;98550.69;;;10.74;58.50
74627;BME280;63132;52.268;5.192;2024-02-23T01:42:10;98550.81;;;10.52;58.89
74627;BME280;63132;52.268;5.192;2024-02-23T01:44:35;98545.59;;;10.73;59.09
74627;BME280;63132;52.268;5.192;2024-02-23T01:47:00;98557.56;;;10.61;59.30
74627;BME280;63132;52.268;5.192;2024-02-23T01:49:26;98560.56;;;10.26;59.80
74627;BME280;63132;52.268;5.192;2024-02-23T01:51:56;98554.56;;;10.27;59.69
74627;BME280;63132;52.268;5.192;2024-02-23T01:54:22;98565.13;;;10.20;60.15
74627;BME280;63132;52.268;5.192;2024-02-23T01:56:47;98563.81;;;10.24;59.54
74627;BME280;63132;52.268;5.192;2024-02-23T01:59:13;98575.06;;;9.99;60.02
74627;BME280;63132;52.268;5.192;2024-02-23T02:01:38;98567.03;;;10.32;59.64
74627;BME280;63132;52.268;5.192;2024-02-23T02:04:04;98571.31;;;10.24;58.64
74627;BME280;63132;52.268;5.192;2024-02-23T02:06:29;98571.53;;;10.48;58.69
74627;BME280;63132;52.268;5.192;2024-02-23T02:08:55;98584.50;;;10.20;58.33
74627;BME280;63132;52.268;5.192;2024-02-23T02:11:20;98586.03;;;9.81;58.61
74627;BME280;63132;52.268;5.192;2024-02-23T02:13:45;98588.38;;;9.91;58.25
74627;BME280;63132;52.268;5.192;2024-02-23T02:16:11;98594.72;;;9.70;58.99
74627;BME280;63132;52.268;5.192;2024-02-23T02:18:37;98594.03;;;9.88;59.08
74627;BME280;63132;52.268;5.192;2024-02-23T02:21:02;98593.47;;;9.62;59.85
74627;BME280;63132;52.268;5.192;2024-02-23T02:23:28;98614.28;;;9.10;60.17
74627;BME280;63132;52.268;5.192;2024-02-23T02:28:20;98597.47;;;9.39;59.14
74627;BME280;63132;52.268;5.192;2024-02-23T02:30:45;98604.44;;;9.31;59.65
74627;BME280;63132;52.268;5.192;2024-02-23T02:33:11;98599.81;;;9.71;59.17
74627;BME280;63132;52.268;5.192;2024-02-23T02:35:36;98605.34;;;9.50;60.58
74627;BME280;63132;52.268;5.192;2024-02-23T02:38:02;98607.06;;;9.56;61.22
74627;BME280;63132;52.268;5.192;2024-02-23T02:40:27;98609.19;;;9.30;61.69
74627;BME280;63132;52.268;5.192;2024-02-23T02:42:52;98609.19;;;9.52;60.66
74627;BME280;63132;52.268;5.192;2024-02-23T02:45:18;98603.28;;;9.63;61.21
74627;BME280;63132;52.268;5.192;2024-02-23T02:47:43;98615.47;;;9.53;61.10
74627;BME280;63132;52.268;5.192;2024-02-23T02:50:09;98618.94;;;9.66;60.81
74627;BME280;63132;52.268;5.192;2024-02-23T02:52:34;98611.84;;;9.56;61.58
74627;BME280;63132;52.268;5.192;2024-02-23T02:54:59;98612.28;;;9.32;62.50
74627;BME280;63132;52.268;5.192;2024-02-23T02:57:25;98619.88;;;9.63;61.64
74627;BME280;63132;52.268;5.192;2024-02-23T02:59:50;98617.16;;;9.28;62.52
74627;BME280;63132;52.268;5.192;2024-02-23T03:02:15;98625.19;;;9.57;62.39
74627;BME280;63132;52.268;5.192;2024-02-23T03:04:50;98631.75;;;9.73;62.48
74627;BME280;63132;52.268;5.192;2024-02-23T03:07:16;98636.13;;;9.39;63.25
74627;BME280;63132;52.268;5.192;2024-02-23T03:09:41;98637.72;;;9.71;62.74
74627;BME280;63132;52.268;5.192;2024-02-23T03:12:07;98631.41;;;9.92;61.59
74627;BME280;63132;52.268;5.192;2024-02-23T03:14:32;98628.47;;;9.43;62.59
74627;BME280;63132;52.268;5.192;2024-02-23T03:16:59;98617.38;;;9.34;63.14
74627;BME280;63132;52.268;5.192;2024-02-23T03:19:24;98627.97;;;9.35;63.24
74627;BME280;63132;52.268;5.192;2024-02-23T03:21:50;98623.72;;;9.43;62.80
74627;BME280;63132;52.268;5.192;2024-02-23T03:24:16;98632.72;;;9.57;62.63
74627;BME280;63132;52.268;5.192;2024-02-23T03:26:42;98647.47;;;9.19;62.89
74627;BME280;63132;52.268;5.192;2024-02-23T03:29:08;98643.81;;;9.88;62.32
74627;BME280;63132;52.268;5.192;2024-02-23T03:31:33;98648.75;;;9.27;63.54
74627;BME280;63132;52.268;5.192;2024-02-23T03:33:59;98638.03;;;9.51;62.34
74627;BME280;63132;52.268;5.192;2024-02-23T03:36:24;98655.53;;;9.48;61.79
74627;BME280;63132;52.268;5.192;2024-02-23T03:38:49;98658.13;;;9.95;60.91
74627;BME280;63132;52.268;5.192;2024-02-23T03:41:15;98649.56;;;10.03;61.01
74627;BME280;63132;52.268;5.192;2024-02-23T03:43:40;98658.66;;;9.37;62.47
74627;BME280;63132;52.268;5.192;2024-02-23T03:46:05;98652.59;;;9.95;60.90
74627;BME280;63132;52.268;5.192;2024-02-23T03:48:31;98654.97;;;10.06;60.03
74627;BME280;63132;52.268;5.192;2024-02-23T03:50:57;98650.22;;;9.54;61.39
74627;BME280;63132;52.268;5.192;2024-02-23T03:53:22;98657.25;;;9.77;60.75
74627;BME280;63132;52.268;5.192;2024-02-23T03:55:48;98655.69;;;9.76;60.37
74627;BME280;63132;52.268;5.192;2024-02-23T03:58:13;98665.41;;;9.58;60.67
74627;BME280;63132;52.268;5.192;2024-02-23T04:00:38;98664.19;;;9.59;60.95
74627;BME280;63132;52.268;5.192;2024-02-23T04:03:04;98663.69;;;9.52;61.39
74627;BME280;63132;52.268;5.192;2024-02-23T04:05:29;98658.59;;;9.28;61.80
74627;BME280;63132;52.268;5.192;2024-02-23T04:07:54;98672.78;;;9.18;62.28
74627;BME280;63132;52.268;5.192;2024-02-23T04:10:20;98663.06;;;9.13;62.64
74627;BME280;63132;52.268;5.192;2024-02-23T04:12:48;98659.78;;;9.05;62.89
74627;BME280;63132;52.268;5.192;2024-02-23T04:15:13;98668.22;;;9.24;61.67
74627;BME280;63132;52.268;5.192;2024-02-23T04:17:38;98669.56;;;9.19;62.15
74627;BME280;63132;52.268;5.192;2024-02-23T04:20:07;98676.13;;;9.34;61.76
74627;BME280;63132;52.268;5.192;2024-02-23T04:22:35;98677.69;;;9.35;61.67
74627;BME280;63132;52.268;5.192;2024-02-23T04:25:01;98688.16;;;9.06;62.71
74627;BME280;63132;52.268;5.192;2024-02-23T04:27:26;98692.28;;;8.88;63.26
74627;BME280;63132;52.268;5.192;2024-02-23T04:29:51;98688.19;;;9.28;62.35
74627;BME280;63132;52.268;5.192;2024-02-23T04:32:16;98691.56;;;9.10;62.33
74627;BME280;63132;52.268;5.192;2024-02-23T04:34:42;98702.16;;;9.11;62.35
74627;BME280;63132;52.268;5.192;2024-02-23T04:37:07;98696.13;;;9.04;62.64
74627;BME280;63132;52.268;5.192;2024-02-23T04:39:33;98703.28;;;9.49;61.53
74627;BME280;63132;52.268;5.192;2024-02-23T04:41:58;98707.56;;;9.15;62.54
74627;BME280;63132;52.268;5.192;2024-02-23T04:44:23;98701.56;;;9.29;61.79
74627;BME280;63132;52.268;5.192;2024-02-23T04:46:49;98702.75;;;8.17;63.97
74627;BME280;63132;52.268;5.192;2024-02-23T04:49:14;98713.25;;;9.33;62.53
74627;BME280;63132;52.268;5.192;2024-02-23T04:51:39;98697.28;;;8.68;63.59
74627;BME280;63132;52.268;5.192;2024-02-23T04:54:05;98699.47;;;8.73;63.37
74627;BME280;63132;52.268;5.192;2024-02-23T04:56:31;98713.78;;;9.41;62.47
74627;BME280;63132;52.268;5.192;2024-02-23T04:58:56;98699.63;;;9.17;63.09
74627;BME280;63132;52.268;5.192;2024-02-23T05:01:22;98700.03;;;9.15;62.76
74627;BME280;63132;52.268;5.192;2024-02-23T05:03:47;98710.66;;;9.52;61.79
74627;BME280;63132;52.268;5.192;2024-02-23T05:06:13;98702.72;;;9.06;63.03
74627;BME280;63132;52.268;5.192;2024-02-23T05:08:38;98702.72;;;9.06;63.27
74627;BME280;63132;52.268;5.192;2024-02-23T05:11:03;98703.06;;;9.43;62.35
74627;BME280;63132;52.268;5.192;2024-02-23T05:13:29;98704.88;;;9.59;61.32
74627;BME280;63132;52.268;5.192;2024-02-23T05:15:55;98711.13;;;9.03;63.00
74627;BME280;63132;52.268;5.192;2024-02-23T05:18:20;98715.59;;;9.57;62.05
74627;BME280;63132;52.268;5.192;2024-02-23T05:20:46;98702.69;;;9.76;61.91
74627;BME280;63132;52.268;5.192;2024-02-23T05:23:11;98703.16;;;9.18;63.32
74627;BME280;63132;52.268;5.192;2024-02-23T05:25:36;98696.72;;;9.77;61.41
74627;BME280;63132;52.268;5.192;2024-02-23T05:28:02;98701.22;;;10.06;61.06
74627;BME280;63132;52.268;5.192;2024-02-23T05:30:27;98707.44;;;9.53;61.71
74627;BME280;63132;52.268;5.192;2024-02-23T05:32:56;98703.28;;;9.70;61.90
74627;BME280;63132;52.268;5.192;2024-02-23T05:35:22;98708.91;;;9.67;61.44
74627;BME280;63132;52.268;5.192;2024-02-23T05:37:47;98710.59;;;9.86;60.74
74627;BME280;63132;52.268;5.192;2024-02-23T05:40:13;98715.09;;;9.71;61.37
74627;BME280;63132;52.268;5.192;2024-02-23T05:42:39;98709.88;;;9.95;60.79
74627;BME280;63132;52.268;5.192;2024-02-23T05:45:05;98708.56;;;9.99;60.27
74627;BME280;63132;52.268;5.192;2024-02-23T05:47:34;98703.53;;;9.85;60.52
74627;BME280;63132;52.268;5.192;2024-02-23T05:49:59;98703.53;;;9.85;60.45
74627;BME280;63132;52.268;5.192;2024-02-23T05:52:24;98698.41;;;10.27;59.70
74627;BME280;63132;52.268;5.192;2024-02-23T05:54:49;98702.25;;;9.99;60.15
74627;BME280;63132;52.268;5.192;2024-02-23T05:57:17;98715.22;;;10.33;59.48
74627;BME280;63132;52.268;5.192;2024-02-23T05:59:42;98704.13;;;10.33;59.58
74627;BME280;63132;52.268;5.192;2024-02-23T06:02:07;98705.09;;;10.39;59.49
74627;BME280;63132;52.268;5.192;2024-02-23T06:04:33;98695.59;;;10.49;58.91
74627;BME280;63132;52.268;5.192;2024-02-23T06:06:58;98699.09;;;10.41;58.95
74627;BME280;63132;52.268;5.192;2024-02-23T06:09:24;98705.13;;;10.48;59.38
74627;BME280;63132;52.268;5.192;2024-02-23T06:11:49;98703.09;;;10.40;58.79
74627;BME280;63132;52.268;5.192;2024-02-23T06:14:14;98706.59;;;10.09;59.52
74627;BME280;63132;52.268;5.192;2024-02-23T06:16:40;98707.25;;;10.13;59.80
74627;BME280;63132;52.268;5.192;2024-02-23T06:19:05;98714.34;;;10.45;58.41
74627;BME280;63132;52.268;5.192;2024-02-23T06:21:31;98702.53;;;10.54;58.56
74627;BME280;63132;52.268;5.192;2024-02-23T06:23:57;98710.63;;;10.39;58.80
74627;BME280;63132;52.268;5.192;2024-02-23T06:26:22;98717.69;;;10.40;58.63
74627;BME280;63132;52.268;5.192;2024-02-23T06:28:47;98712.34;;;10.46;58.89
74627;BME280;63132;52.268;5.192;2024-02-23T06:31:14;98728.88;;;10.06;59.35
74627;BME280;63132;52.268;5.192;2024-02-23T06:33:39;98725.03;;;10.34;58.81
74627;BME280;63132;52.268;5.192;2024-02-23T06:36:06;98714.69;;;10.04;59.49
74627;BME280;63132;52.268;5.192;2024-02-23T06:38:32;98731.81;;;10.33;58.86
74627;BME280;63132;52.268;5.192;2024-02-23T06:40:57;98711.84;;;10.38;58.63
74627;BME280;63132;52.268;5.192;2024-02-23T06:43:22;98723.22;;;10.40;58.76
74627;BME280;63132;52.268;5.192;2024-02-23T06:45:48;98717.19;;;10.64;58.01
74627;BME280;63132;52.268;5.192;2024-02-23T06:48:13;98718.44;;;10.32;58.46
74627;BME280;63132;52.268;5.192;2024-02-23T06:50:38;98720.94;;;10.39;58.31
74627;BME280;63132;52.268;5.192;2024-02-23T06:53:04;98719.84;;;10.14;58.97
74627;BME280;63132;52.268;5.192;2024-02-23T06:55:30;98722.16;;;10.16;59.06
74627;BME280;63132;52.268;5.192;2024-02-23T06:57:55;98723.75;;;10.57;57.87
74627;BME280;63132;52.268;5.192;2024-02-23T07:00:21;98726.78;;;10.19;57.80
74627;BME280;63132;52.268;5.192;2024-02-23T07:02:47;98722.28;;;10.12;58.66
74627;BME280;63132;52.268;5.192;2024-02-23T07:05:12;98723.03;;;10.13;58.63
74627;BME280;63132;52.268;5.192;2024-02-23T07:07:39;98724.16;;;10.37;57.74
74627;BME280;63132;52.268;5.192;2024-02-23T07:10:06;98735.22;;;9.93;59.06
74627;BME280;63132;52.268;5.192;2024-02-23T07:12:31;98729.34;;;10.35;57.76
74627;BME280;63132;52.268;5.192;2024-02-23T07:14:57;98723.91;;;10.53;57.30
74627;BME280;63132;52.268;5.192;2024-02-23T07:17:22;98729.03;;;10.64;56.50
74627;BME280;63132;52.268;5.192;2024-02-23T07:19:48;98724.88;;;10.07;57.72
74627;BME280;63132;52.268;5.192;2024-02-23T07:22:13;98722.94;;;10.38;57.64
74627;BME280;63132;52.268;5.192;2024-02-23T07:24:42;98723.19;;;10.31;57.38
74627;BME280;63132;52.268;5.192;2024-02-23T07:27:07;98731.66;;;10.68;56.90
74627;BME280;63132;52.268;5.192;2024-02-23T07:29:32;98724.59;;;10.67;57.26
74627;BME280;63132;52.268;5.192;2024-02-23T07:31:58;98713.88;;;10.87;56.31
74627;BME280;63132;52.268;5.192;2024-02-23T07:34:23;98721.50;;;10.65;56.79
74627;BME280;63132;52.268;5.192;2024-02-23T07:36:51;98718.66;;;10.46;56.76
74627;BME280;63132;52.268;5.192;2024-02-23T07:39:17;98717.19;;;10.64;55.88
74627;BME280;63132;52.268;5.192;2024-02-23T07:41:42;98718.69;;;11.05;55.92
74627;BME280;63132;52.268;5.192;2024-02-23T07:44:08;98716.81;;;10.93;55.67
74627;BME280;63132;52.268;5.192;2024-02-23T07:46:33;98712.09;;;10.62;55.68
74627;BME280;63132;52.268;5.192;2024-02-23T07:48:58;98711.31;;;10.52;56.14
74627;BME280;63132;52.268;5.192;2024-02-23T07:51:24;98701.44;;;10.92;55.37
74627;BME280;63132;52.268;5.192;2024-02-23T07:53:49;98698.38;;;10.99;55.01
74627;BME280;63132;52.268;5.192;2024-02-23T07:56:14;98689.41;;;10.76;55.55
74627;BME280;63132;52.268;5.192;2024-02-23T07:58:40;98682.13;;;10.61;56.07
74627;BME280;63132;52.268;5.192;2024-02-23T08:01:05;98694.25;;;10.54;56.07
74627;BME280;63132;52.268;5.192;2024-02-23T08:03:30;98694.94;;;10.76;55.77
74627;BME280;63132;52.268;5.192;2024-02-23T08:05:56;98693.91;;;10.92;55.58
74627;BME280;63132;52.268;5.192;2024-02-23T08:08:22;98690.34;;;10.92;55.52
74627;BME280;63132;52.268;5.192;2024-02-23T08:10:49;98684.63;;;10.77;56.10
74627;BME280;63132;52.268;5.192;2024-02-23T08:13:14;98686.91;;;10.69;56.30
74627;BME280;63132;52.268;5.192;2024-02-23T08:15:40;98687.56;;;10.82;56.41
74627;BME280;63132;52.268;5.192;2024-02-23T08:18:05;98677.63;;;11.03;55.67
74627;BME280;63132;52.268;5.192;2024-02-23T08:20:31;98687.69;;;10.70;55.97
74627;BME280;63132;52.268;5.192;2024-02-23T08:22:56;98676.63;;;10.79;55.86
74627;BME280;63132;52.268;5.192;2024-02-23T08:25:21;98680.78;;;10.74;56.67
74627;BME280;63132;52.268;5.192;2024-02-23T08:27:47;98679.19;;;10.64;56.52
74627;BME280;63132;52.268;5.192;2024-02-23T08:30:13;98690.16;;;10.77;57.22
74627;BME280;63132;52.268;5.192;2024-02-23T08:32:38;98689.13;;;10.43;58.43
74627;BME280;63132;52.268;5.192;2024-02-23T08:35:04;98677.72;;;10.41;58.54
74627;BME280;63132;52.268;5.192;2024-02-23T08:37:29;98682.31;;;10.35;59.58
74627;BME280;63132;52.268;5.192;2024-02-23T08:39:55;98677.56;;;10.76;59.46
74627;BME280;63132;52.268;5.192;2024-02-23T08:42:21;98674.06;;;10.44;59.87
74627;BME280;63132;52.268;5.192;2024-02-23T08:44:46;98677.59;;;10.45;60.13
74627;BME280;63132;52.268;5.192;2024-02-23T08:47:12;98671.63;;;10.56;59.55
74627;BME280;63132;52.268;5.192;2024-02-23T08:49:37;98668.03;;;10.86;58.50
74627;BME280;63132;52.268;5.192;2024-02-23T08:52:02;98678.44;;;10.64;58.71
74627;BME280;63132;52.268;5.192;2024-02-23T08:54:29;98672.91;;;10.64;59.09
74627;BME280;63132;52.268;5.192;2024-02-23T08:56:54;98670.94;;;10.33;59.63
74627;BME280;63132;52.268;5.192;2024-02-23T08:59:20;98681.66;;;10.00;61.36
74627;BME280;63132;52.268;5.192;2024-02-23T09:01:45;98679.91;;;10.15;60.42
74627;BME280;63132;52.268;5.192;2024-02-23T09:04:13;98673.28;;;10.13;60.56
74627;BME280;63132;52.268;5.192;2024-02-23T09:06:38;98659.28;;;10.38;60.53
74627;BME280;63132;52.268;5.192;2024-02-23T09:09:03;98670.31;;;10.29;60.88
74627;BME280;63132;52.268;5.192;2024-02-23T09:11:29;98676.00;;;10.66;59.87
74627;BME280;63132;52.268;5.192;2024-02-23T09:13:54;98671.16;;;10.48;59.90
74627;BME280;63132;52.268;5.192;2024-02-23T09:16:20;98668.31;;;10.70;59.28
74627;BME280;63132;52.268;5.192;2024-02-23T09:18:47;98676.31;;;10.77;59.52
74627;BME280;63132;52.268;5.192;2024-02-23T09:21:12;98687.25;;;10.40;59.69
74627;BME280;63132;52.268;5.192;2024-02-23T09:23:39;98681.25;;;10.82;59.72
74627;BME280;63132;52.268;5.192;2024-02-23T09:26:09;98688.50;;;10.39;60.79
74627;BME280;63132;52.268;5.192;2024-02-23T09:28:36;98684.00;;;10.73;60.32
74627;BME280;63132;52.268;5.192;2024-02-23T09:31:01;98689.25;;;10.09;61.01
74627;BME280;63132;52.268;5.192;2024-02-23T09:33:28;98689.78;;;10.57;60.54
74627;BME280;63132;52.268;5.192;2024-02-23T09:35:53;98686.78;;;10.73;60.34
74627;BME280;63132;52.268;5.192;2024-02-23T09:38:19;98683.16;;;11.03;59.46
74627;BME280;63132;52.268;5.192;2024-02-23T09:40:45;98689.75;;;10.47;60.54
74627;BME280;63132;52.268;5.192;2024-02-23T09:43:11;98682.50;;;10.81;59.75
74627;BME280;63132;52.268;5.192;2024-02-23T09:45:37;98699.91;;;10.91;60.04
74627;BME280;63132;52.268;5.192;2024-02-23T09:48:03;98679.16;;;11.32;58.58
74627;BME280;63132;52.268;5.192;2024-02-23T09:50:29;98687.78;;;11.06;58.86
74627;BME280;63132;52.268;5.192;2024-02-23T09:52:56;98683.19;;;11.40;59.03
74627;BME280;63132;52.268;5.192;2024-02-23T09:55:23;98683.03;;;11.71;58.05
74627;BME280;63132;52.268;5.192;2024-02-23T09:57:51;98691.88;;;12.30;56.72
74627;BME280;63132;52.268;5.192;2024-02-23T10:00:20;98703.84;;;12.45;56.41
74627;BME280;63132;52.268;5.192;2024-02-23T10:02:45;98706.75;;;12.00;56.81
74627;BME280;63132;52.268;5.192;2024-02-23T10:05:12;98699.03;;;12.04;56.06
74627;BME280;63132;52.268;5.192;2024-02-23T10:07:38;98713.66;;;12.04;55.86
74627;BME280;63132;52.268;5.192;2024-02-23T10:10:08;98700.75;;;11.64;56.85
74627;BME280;63132;52.268;5.192;2024-02-23T10:12:34;98711.84;;;11.55;56.83
74627;BME280;63132;52.268;5.192;2024-02-23T10:15:00;98715.50;;;11.80;57.11
74627;BME280;63132;52.268;5.192;2024-02-23T10:17:29;98699.97;;;11.55;57.78
74627;BME280;63132;52.268;5.192;2024-02-23T10:19:54;98722.78;;;11.77;57.21
74627;BME280;63132;52.268;5.192;2024-02-23T10:22:20;98703.81;;;11.67;57.36
74627;BME280;63132;52.268;5.192;2024-02-23T10:24:46;98712.28;;;11.45;57.59
74627;BME280;63132;52.268;5.192;2024-02-23T10:27:12;98716.34;;;10.85;59.13
74627;BME280;63132;52.268;5.192;2024-02-23T10:29:37;98717.81;;;11.35;57.88
74627;BME280;63132;52.268;5.192;2024-02-23T10:32:03;98723.66;;;11.37;57.14
74627;BME280;63132;52.268;5.192;2024-02-23T10:34:31;98719.38;;;11.46;57.77
74627;BME280;63132;52.268;5.192;2024-02-23T10:36:56;98708.28;;;11.46;57.24
74627;BME280;63132;52.268;5.192;2024-02-23T10:39:24;98726.75;;;11.76;57.45
74627;BME280;63132;52.268;5.192;2024-02-23T10:42:02;98731.38;;;11.98;56.93
74627;BME280;63132;52.268;5.192;2024-02-23T10:44:28;98731.38;;;11.79;56.75
74627;BME280;63132;52.268;5.192;2024-02-23T10:46:55;98751.88;;;11.73;57.19
74627;BME280;63132;52.268;5.192;2024-02-23T10:49:23;98746.34;;;12.00;56.04
74627;BME280;63132;52.268;5.192;2024-02-23T10:51:51;98733.94;;;12.29;55.41
74627;BME280;63132;52.268;5.192;2024-02-23T10:54:17;98743.56;;;11.91;56.56
74627;BME280;63132;52.268;5.192;2024-02-23T10:56:47;98753.44;;;12.01;56.68
74627;BME280;63132;52.268;5.192;2024-02-23T10:59:13;98746.28;;;12.37;55.53
74627;BME280;63132;52.268;5.192;2024-02-23T11:01:39;98751.50;;;12.44;55.08
74627;BME280;63132;52.268;5.192;2024-02-23T11:04:06;98760.81;;;12.13;55.84
74627;BME280;63132;52.268;5.192;2024-02-23T11:06:33;98749.53;;;12.26;55.76
74627;BME280;63132;52.268;5.192;2024-02-23T11:09:08;98758.78;;;11.50;57.06
74627;BME280;63132;52.268;5.192;2024-02-23T11:11:38;98777.91;;;11.66;56.99
74627;BME280;63132;52.268;5.192;2024-02-23T11:14:07;98757.91;;;11.80;55.74
74627;BME280;63132;52.268;5.192;2024-02-23T11:16:38;98754.34;;;11.98;55.63
74627;BME280;63132;52.268;5.192;2024-02-23T11:19:05;98770.25;;;12.07;55.44
74627;BME280;63132;52.268;5.192;2024-02-23T11:21:35;98756.69;;;12.60;54.80
74627;BME280;63132;52.268;5.192;2024-02-23T11:24:03;98761.97;;;12.49;54.52
74627;BME280;63132;52.268;5.192;2024-02-23T11:26:28;98769.91;;;12.23;54.80
74627;BME280;63132;52.268;5.192;2024-02-23T11:28:54;98780.69;;;12.12;54.78
74627;BME280;63132;52.268;5.192;2024-02-23T11:31:21;98759.19;;;12.49;54.13
74627;BME280;63132;52.268;5.192;2024-02-23T11:33:51;98773.06;;;12.49;54.19
74627;BME280;63132;52.268;5.192;2024-02-23T11:36:23;98776.41;;;11.93;54.98
74627;BME280;63132;52.268;5.192;2024-02-23T11:38:52;98773.59;;;12.11;55.05
74627;BME280;63132;52.268;5.192;2024-02-23T11:41:20;98773.25;;;12.36;54.14
74627;BME280;63132;52.268;5.192;2024-02-23T11:43:47;98798.25;;;12.27;54.82
74627;BME280;63132;52.268;5.192;2024-02-23T11:46:12;98773.13;;;12.12;54.87
74627;BME280;63132;52.268;5.192;2024-02-23T11:48:37;98777.28;;;12.78;53.55
74627;BME280;63132;52.268;5.192;2024-02-23T11:51:03;98785.31;;;12.06;54.18
74627;BME280;63132;52.268;5.192;2024-02-23T11:53:28;98806.22;;;12.95;53.18
74627;BME280;63132;52.268;5.192;2024-02-23T11:55:55;98786.63;;;12.56;53.50
74627;BME280;63132;52.268;5.192;2024-02-23T11:58:20;98800.56;;;12.19;54.27
74627;BME280;63132;52.268;5.192;2024-02-23T12:00:45;98784.78;;;12.53;53.79
74627;BME280;63132;52.268;5.192;2024-02-23T12:03:11;98792.53;;;12.40;54.08
74627;BME280;63132;52.268;5.192;2024-02-23T12:05:37;98795.13;;;12.95;53.22
74627;BME280;63132;52.268;5.192;2024-02-23T12:08:02;98802.47;;;13.40;52.38
74627;BME280;63132;52.268;5.192;2024-02-23T12:10:29;98805.16;;;13.35;51.60
74627;BME280;63132;52.268;5.192;2024-02-23T12:12:55;98794.25;;;12.80;53.16
74627;BME280;63132;52.268;5.192;2024-02-23T12:15:20;98797.03;;;12.89;52.55
74627;BME280;63132;52.268;5.192;2024-02-23T12:17:49;98803.56;;;12.67;53.41
74627;BME280;63132;52.268;5.192;2024-02-23T12:20:15;98804.44;;;12.83;52.42
74627;BME280;63132;52.268;5.192;2024-02-23T12:22:42;98774.06;;;13.12;52.15
74627;BME280;63132;52.268;5.192;2024-02-23T12:25:07;98801.97;;;13.18;51.58
74627;BME280;63132;52.268;5.192;2024-02-23T12:27:33;98806.69;;;13.83;50.77
74627;BME280;63132;52.268;5.192;2024-02-23T12:29:58;98793.78;;;13.23;51.30
74627;BME280;63132;52.268;5.192;2024-02-23T12:32:24;98810.78;;;13.16;51.76
74627;BME280;63132;52.268;5.192;2024-02-23T12:34:50;98811.16;;;13.66;51.39
74627;BME280;63132;52.268;5.192;2024-02-23T12:37:16;98807.44;;;13.03;51.81
74627;BME280;63132;52.268;5.192;2024-02-23T12:39:42;98813.25;;;13.47;51.40
74627;BME280;63132;52.268;5.192;2024-02-23T12:42:08;98808.53;;;13.63;50.55
74627;BME280;63132;52.268;5.192;2024-02-23T12:44:33;98816.31;;;13.97;50.37
74627;BME280;63132;52.268;5.192;2024-02-23T12:46:58;98813.19;;;13.33;50.17
74627;BME280;63132;52.268;5.192;2024-02-23T12:49:23;98818.31;;;13.58;51.13
74627;BME280;63132;52.268;5.192;2024-02-23T12:51:49;98818.44;;;13.64;51.49
74627;BME280;63132;52.268;5.192;2024-02-23T12:54:14;98822.00;;;13.31;51.08
74627;BME280;63132;52.268;5.192;2024-02-23T12:56:39;98813.38;;;13.29;51.00